Time;durP1;ratioP1;P1;durP2;ratioP2;P2;SDS_P1;SDS_P2;PMS_P1;PMS_P2;Temp;Humidity;BMP_temperature;BMP_pressure;BME280_temperature;BME280_humidity;BME280_pressure;Samples;Min_cycle;Max_cycle;Signal;HPM_P1;HPM_P2
2022/12/29 00:01:19;;;;;;;;;;;9.30;99.90;;;;;;5059040;27;20393;-81
2022/12/29 00:03:48;;;;;;;;;;;9.40;99.90;;;;;;5075192;28;19927;-81
2022/12/29 00:06:13;;;;;;;;;;;9.40;99.90;;;;;;5073752;28;19924;-81
2022/12/29 00:08:39;;;;;;;;;;;9.40;99.90;;;;;;5089948;28;19972;-81
2022/12/29 00:11:21;;;;;;;;;;;9.40;99.90;;;;;;5073107;27;20380;-81
2022/12/29 00:16:31;;;;;;;;;;;9.50;99.90;;;;;;5088868;27;20014;-81
2022/12/29 00:18:57;;;;;;;;;;;9.50;99.90;;;;;;5070620;28;20018;-81
2022/12/29 00:35:09;;;;;;;;;;;9.70;99.90;;;;;;5090046;28;19968;-81
2022/12/29 00:45:49;;;;;;;;;;;9.80;99.90;;;;;;5069590;28;19920;-81
2022/12/29 00:48:15;;;;;;;;;;;9.70;99.90;;;;;;5071384;28;19919;-81
2022/12/29 00:50:40;;;;;;;;;;;9.70;99.90;;;;;;5066112;27;19939;-81
2022/12/29 00:53:06;;;;;;;;;;;9.70;99.90;;;;;;5073374;28;19978;-81
2022/12/29 00:55:36;;;;;;;;;;;9.80;99.90;;;;;;5072905;28;20312;-81
2022/12/29 00:58:01;;;;;;;;;;;9.80;99.90;;;;;;5086995;28;19923;-82
2022/12/29 01:00:27;;;;;;;;;;;9.80;99.90;;;;;;5054995;28;20400;-81
2022/12/29 01:02:52;;;;;;;;;;;9.80;99.90;;;;;;5084265;28;20001;-81
2022/12/29 01:05:18;;;;;;;;;;;9.80;99.90;;;;;;5051767;28;19920;-81
2022/12/29 01:07:43;;;;;;;;;;;9.90;99.90;;;;;;5071548;28;19924;-81
2022/12/29 01:10:12;;;;;;;;;;;9.90;99.90;;;;;;5072208;28;19934;-82
2022/12/29 01:12:40;;;;;;;;;;;9.90;99.90;;;;;;5053857;28;20377;-82
2022/12/29 01:15:07;;;;;;;;;;;9.90;99.90;;;;;;5088094;28;20306;-81
2022/12/29 01:17:33;;;;;;;;;;;9.90;99.90;;;;;;5072610;28;19943;-81
2022/12/29 01:19:58;;;;;;;;;;;10.00;99.90;;;;;;5068150;28;20369;-81
2022/12/29 01:22:24;;;;;;;;;;;10.00;99.90;;;;;;5068755;28;20008;-81
2022/12/29 01:24:49;;;;;;;;;;;10.00;99.90;;;;;;5070908;28;19926;-82
2022/12/29 01:27:15;;;;;;;;;;;10.00;99.90;;;;;;5067831;28;20386;-81
2022/12/29 01:29:41;;;;;;;;;;;10.00;99.90;;;;;;5113836;28;19924;-81
2022/12/29 01:32:09;;;;;;;;;;;10.10;99.90;;;;;;5083340;28;19985;-81
2022/12/29 01:34:35;;;;;;;;;;;10.10;99.90;;;;;;5082716;28;20098;-81
2022/12/29 01:37:00;;;;;;;;;;;10.20;99.90;;;;;;5070207;28;19963;-82
2022/12/29 01:39:26;;;;;;;;;;;10.20;99.90;;;;;;5072964;28;19919;-82
2022/12/29 01:41:52;;;;;;;;;;;10.30;99.90;;;;;;5053332;28;19954;-82
2022/12/29 01:44:36;;;;;;;;;;;10.20;99.90;;;;;;5086171;28;19955;-82
2022/12/29 01:47:01;;;;;;;;;;;10.30;99.90;;;;;;5069906;28;19965;-81
2022/12/29 01:49:29;;;;;;;;;;;10.20;99.90;;;;;;5084747;28;20016;-82
2022/12/29 01:52:00;;;;;;;;;;;10.30;99.90;;;;;;5087857;28;19923;-81
2022/12/29 01:54:31;;;;;;;;;;;10.30;99.90;;;;;;5070967;28;20007;-81
2022/12/29 01:56:59;;;;;;;;;;;10.30;99.90;;;;;;5088223;28;19980;-81
2022/12/29 01:59:27;;;;;;;;;;;10.30;99.90;;;;;;5086802;28;19920;-81
2022/12/29 02:01:52;;;;;;;;;;;10.30;99.90;;;;;;5071215;28;20300;-81
2022/12/29 02:04:18;;;;;;;;;;;10.40;99.90;;;;;;5086232;28;19919;-82
2022/12/29 02:06:55;;;;;;;;;;;10.40;99.90;;;;;;5071607;27;20407;-82
2022/12/29 02:09:21;;;;;;;;;;;10.30;99.90;;;;;;5068070;28;20274;-81
2022/12/29 02:11:47;;;;;;;;;;;10.30;99.90;;;;;;5071754;28;19932;-81
2022/12/29 02:14:13;;;;;;;;;;;10.30;99.90;;;;;;5086367;28;19926;-81
2022/12/29 02:16:58;;;;;;;;;;;10.30;99.90;;;;;;5071201;28;19944;-81
2022/12/29 02:19:42;;;;;;;;;;;10.30;99.90;;;;;;5068749;28;19919;-81
2022/12/29 02:22:14;;;;;;;;;;;10.20;99.90;;;;;;5086138;28;20411;-81
2022/12/29 02:24:39;;;;;;;;;;;10.20;99.90;;;;;;5069247;28;19920;-81
2022/12/29 02:27:05;;;;;;;;;;;10.20;99.90;;;;;;5070125;28;19926;-81
2022/12/29 02:29:36;;;;;;;;;;;10.20;99.90;;;;;;5068349;28;19919;-81
2022/12/29 02:32:08;;;;;;;;;;;10.20;99.90;;;;;;5066369;28;19935;-82
2022/12/29 02:34:33;;;;;;;;;;;10.30;99.90;;;;;;5064118;28;20010;-81
2022/12/29 02:36:59;;;;;;;;;;;10.30;99.90;;;;;;5070581;28;20002;-81
2022/12/29 02:39:27;;;;;;;;;;;10.20;99.90;;;;;;5069522;28;19967;-81
2022/12/29 02:42:02;;;;;;;;;;;10.20;99.90;;;;;;5068938;28;19920;-81
2022/12/29 02:44:47;;;;;;;;;;;10.10;99.90;;;;;;5081848;28;20297;-81
2022/12/29 02:47:16;;;;;;;;;;;10.10;99.90;;;;;;5069073;28;19953;-81
2022/12/29 02:49:41;;;;;;;;;;;10.10;99.90;;;;;;5083233;28;19920;-80
2022/12/29 02:52:11;;;;;;;;;;;10.00;99.90;;;;;;5071416;28;20369;-80
2022/12/29 02:54:43;;;;;;;;;;;10.00;99.90;;;;;;5083835;28;20401;-80
2022/12/29 02:57:10;;;;;;;;;;;9.90;99.90;;;;;;5066635;28;19919;-80
2022/12/29 02:59:36;;;;;;;;;;;9.80;99.90;;;;;;5070062;28;19920;-80
2022/12/29 03:02:20;;;;;;;;;;;9.80;99.90;;;;;;5069664;28;19924;-80
2022/12/29 03:05:04;;;;;;;;;;;9.80;99.90;;;;;;5085427;28;19927;-79
2022/12/29 03:07:42;;;;;;;;;;;9.80;99.90;;;;;;5069548;28;20377;-79
2022/12/29 03:10:26;;;;;;;;;;;9.70;99.90;;;;;;5086703;28;19927;-79
2022/12/29 03:16:03;;;;;;;;;;;9.60;99.90;;;;;;5083219;28;20119;-80
2022/12/29 03:18:39;;;;;;;;;;;9.60;99.90;;;;;;5070037;28;20376;-80
2022/12/29 03:21:10;;;;;;;;;;;9.60;99.90;;;;;;5084478;28;19919;-80
2022/12/29 03:23:37;;;;;;;;;;;9.60;99.90;;;;;;5070563;28;20604;-80
2022/12/29 03:26:05;;;;;;;;;;;9.50;99.90;;;;;;5067948;28;19928;-80
2022/12/29 03:28:34;;;;;;;;;;;9.50;99.90;;;;;;5085800;28;19927;-80
2022/12/29 03:31:00;;;;;;;;;;;9.50;99.90;;;;;;5087143;28;19931;-80
2022/12/29 03:33:28;;;;;;;;;;;9.50;99.90;;;;;;5067103;28;19928;-80
2022/12/29 03:35:55;;;;;;;;;;;9.50;99.90;;;;;;5084032;28;19928;-80
2022/12/29 03:38:24;;;;;;;;;;;9.40;99.90;;;;;;5067278;28;19920;-80
2022/12/29 03:40:51;;;;;;;;;;;9.50;99.90;;;;;;5084516;28;19920;-80
2022/12/29 03:43:17;;;;;;;;;;;9.50;99.90;;;;;;5089480;28;19919;-80
2022/12/29 03:45:43;;;;;;;;;;;9.60;99.90;;;;;;5072199;27;19926;-80
2022/12/29 03:48:08;;;;;;;;;;;9.60;99.90;;;;;;5074178;28;19920;-81
2022/12/29 03:50:34;;;;;;;;;;;9.60;99.90;;;;;;5053296;28;20377;-80
2022/12/29 03:52:59;;;;;;;;;;;9.60;99.90;;;;;;5073628;28;19984;-80
2022/12/29 03:55:25;;;;;;;;;;;9.60;99.90;;;;;;5070556;28;19927;-81
2022/12/29 03:57:51;;;;;;;;;;;9.60;99.90;;;;;;5071417;28;20598;-81
2022/12/29 04:00:17;;;;;;;;;;;9.60;99.90;;;;;;5054418;28;20010;-81
2022/12/29 04:02:42;;;;;;;;;;;9.60;99.90;;;;;;5088689;28;19923;-81
2022/12/29 04:05:08;;;;;;;;;;;9.60;99.90;;;;;;5073994;28;19926;-81
2022/12/29 04:07:33;;;;;;;;;;;9.60;99.90;;;;;;5069902;28;20388;-81
2022/12/29 04:09:59;;;;;;;;;;;9.60;99.90;;;;;;5068388;28;19930;-81
2022/12/29 04:12:24;;;;;;;;;;;9.60;99.90;;;;;;5070954;28;19924;-81
2022/12/29 04:14:50;;;;;;;;;;;9.60;99.90;;;;;;5071266;28;19920;-81
2022/12/29 04:17:16;;;;;;;;;;;9.60;99.90;;;;;;5070352;28;19974;-81
2022/12/29 04:19:41;;;;;;;;;;;9.60;99.90;;;;;;5071326;28;20017;-81
2022/12/29 04:22:07;;;;;;;;;;;9.60;99.90;;;;;;5070481;28;19959;-81
2022/12/29 04:24:32;;;;;;;;;;;9.60;99.90;;;;;;5083363;28;19927;-81
2022/12/29 04:26:58;;;;;;;;;;;9.70;99.90;;;;;;5068141;28;19943;-81
2022/12/29 04:29:23;;;;;;;;;;;9.70;99.90;;;;;;5067108;28;20024;-81
2022/12/29 04:31:49;;;;;;;;;;;9.70;99.90;;;;;;5086215;28;19924;-81
2022/12/29 04:34:15;;;;;;;;;;;9.70;99.90;;;;;;5066854;28;20456;-81
2022/12/29 04:36:40;;;;;;;;;;;9.70;99.90;;;;;;5067010;28;19970;-81
2022/12/29 04:39:06;;;;;;;;;;;9.70;99.90;;;;;;5087115;28;19920;-81
2022/12/29 04:41:32;;;;;;;;;;;9.70;99.90;;;;;;5063658;28;20672;-81
2022/12/29 04:43:58;;;;;;;;;;;9.70;99.90;;;;;;5071401;28;19927;-81
2022/12/29 04:46:23;;;;;;;;;;;9.70;99.90;;;;;;5071282;28;20337;-81
2022/12/29 04:48:49;;;;;;;;;;;9.80;99.90;;;;;;5063956;28;19920;-81
2022/12/29 04:51:14;;;;;;;;;;;9.80;99.90;;;;;;5050149;28;20096;-81
2022/12/29 04:53:40;;;;;;;;;;;9.80;99.90;;;;;;5080951;28;19924;-81
2022/12/29 04:56:06;;;;;;;;;;;9.80;99.90;;;;;;5065657;28;19920;-81
2022/12/29 04:58:31;;;;;;;;;;;9.80;99.90;;;;;;5065767;28;20014;-81
2022/12/29 05:00:57;;;;;;;;;;;9.70;99.90;;;;;;5082863;28;19997;-81
2022/12/29 05:03:22;;;;;;;;;;;9.70;99.90;;;;;;5055524;28;19924;-81
2022/12/29 05:05:48;;;;;;;;;;;9.70;99.90;;;;;;5068828;28;19920;-81
2022/12/29 05:08:14;;;;;;;;;;;9.70;99.90;;;;;;5075644;28;19926;-82
2022/12/29 05:10:39;;;;;;;;;;;9.70;99.90;;;;;;5090751;28;19927;-81
2022/12/29 05:13:05;;;;;;;;;;;9.70;99.90;;;;;;5063858;28;20065;-82
2022/12/29 05:15:31;;;;;;;;;;;9.80;99.90;;;;;;5067121;28;20447;-81
2022/12/29 05:17:56;;;;;;;;;;;9.70;99.90;;;;;;5059880;28;19920;-81
2022/12/29 05:20:22;;;;;;;;;;;9.70;99.90;;;;;;5089164;28;20002;-81
2022/12/29 05:22:47;;;;;;;;;;;9.70;99.90;;;;;;5075569;27;20408;-81
2022/12/29 05:25:13;;;;;;;;;;;9.70;99.90;;;;;;5071317;27;19920;-81
2022/12/29 05:27:38;;;;;;;;;;;9.70;99.90;;;;;;5060317;28;19924;-81
2022/12/29 05:30:04;;;;;;;;;;;9.60;99.90;;;;;;5056070;28;19927;-81
2022/12/29 05:32:30;;;;;;;;;;;9.70;99.90;;;;;;5054246;28;19924;-81
2022/12/29 05:34:55;;;;;;;;;;;9.60;99.90;;;;;;5052773;28;20339;-81
2022/12/29 05:37:21;;;;;;;;;;;9.50;99.90;;;;;;5069575;28;19926;-81
2022/12/29 05:39:47;;;;;;;;;;;9.50;99.90;;;;;;5055347;28;19972;-81
2022/12/29 05:42:12;;;;;;;;;;;9.50;99.90;;;;;;5052445;28;19947;-81
2022/12/29 05:44:38;;;;;;;;;;;9.50;99.90;;;;;;5069220;28;19982;-82
2022/12/29 05:47:03;;;;;;;;;;;9.60;99.90;;;;;;5069929;28;20018;-81
2022/12/29 05:49:29;;;;;;;;;;;9.50;99.90;;;;;;5050603;28;19928;-81
2022/12/29 05:51:54;;;;;;;;;;;9.60;99.90;;;;;;5066693;28;19924;-82
2022/12/29 05:54:20;;;;;;;;;;;9.60;99.90;;;;;;5087750;28;19924;-82
2022/12/29 05:56:45;;;;;;;;;;;9.60;99.90;;;;;;5069770;28;20424;-81
2022/12/29 05:59:11;;;;;;;;;;;9.60;99.90;;;;;;5069040;28;19946;-81
2022/12/29 06:01:37;;;;;;;;;;;9.50;99.90;;;;;;5052407;28;19924;-82
2022/12/29 06:04:02;;;;;;;;;;;9.50;99.90;;;;;;5084963;28;20014;-82
2022/12/29 06:06:28;;;;;;;;;;;9.40;99.90;;;;;;5067865;28;19932;-81
2022/12/29 06:08:54;;;;;;;;;;;9.50;99.90;;;;;;5049349;28;19920;-82
2022/12/29 06:11:19;;;;;;;;;;;10.00;99.90;;;;;;5044640;28;19939;-81
2022/12/29 06:13:45;;;;;;;;;;;9.50;99.90;;;;;;5065455;28;19935;-81
2022/12/29 06:16:10;;;;;;;;;;;9.50;99.90;;;;;;5065380;28;19936;-82
2022/12/29 06:18:36;;;;;;;;;;;9.50;99.90;;;;;;5066454;28;20447;-81
2022/12/29 06:21:02;;;;;;;;;;;9.40;99.90;;;;;;5082368;28;19975;-82
2022/12/29 06:23:28;;;;;;;;;;;9.40;99.90;;;;;;5083419;28;19920;-82
2022/12/29 06:25:53;;;;;;;;;;;9.40;99.90;;;;;;5081449;28;20056;-82
2022/12/29 06:28:19;;;;;;;;;;;9.40;99.90;;;;;;5082304;28;19927;-82
2022/12/29 06:30:45;;;;;;;;;;;9.40;99.90;;;;;;5064948;28;19996;-82
2022/12/29 06:33:11;;;;;;;;;;;9.30;99.90;;;;;;5051618;28;19928;-82
2022/12/29 06:35:37;;;;;;;;;;;9.30;99.90;;;;;;5066772;28;20330;-82
2022/12/29 06:38:02;;;;;;;;;;;9.30;99.90;;;;;;5068268;28;20019;-82
2022/12/29 06:40:28;;;;;;;;;;;9.30;99.90;;;;;;5065953;28;20008;-81
2022/12/29 06:42:53;;;;;;;;;;;9.20;99.90;;;;;;5065419;28;19947;-82
2022/12/29 06:45:19;;;;;;;;;;;9.20;99.90;;;;;;5049773;28;20378;-81
2022/12/29 06:47:45;;;;;;;;;;;9.10;99.90;;;;;;5064803;28;19982;-81
2022/12/29 06:50:10;;;;;;;;;;;9.20;99.90;;;;;;5068141;28;19928;-81
2022/12/29 06:52:36;;;;;;;;;;;9.30;99.90;;;;;;5080538;28;19924;-82
2022/12/29 06:55:01;;;;;;;;;;;9.30;99.90;;;;;;5067583;28;19988;-81
2022/12/29 06:57:27;;;;;;;;;;;9.30;99.90;;;;;;5064789;28;20485;-80
2022/12/29 06:59:55;;;;;;;;;;;9.30;99.90;;;;;;5083889;28;19971;-81
2022/12/29 07:02:21;;;;;;;;;;;9.30;99.90;;;;;;5067428;28;20387;-80
2022/12/29 07:04:47;;;;;;;;;;;9.40;99.90;;;;;;5065127;28;20391;-80
2022/12/29 07:07:12;;;;;;;;;;;9.30;99.90;;;;;;5059776;28;19984;-80
2022/12/29 07:09:38;;;;;;;;;;;9.30;99.90;;;;;;5049339;28;19920;-81
2022/12/29 07:12:03;;;;;;;;;;;9.30;99.90;;;;;;5082583;28;19995;-81
2022/12/29 07:14:29;;;;;;;;;;;9.20;99.90;;;;;;5066866;28;19924;-81
2022/12/29 07:16:55;;;;;;;;;;;9.20;99.90;;;;;;5066294;28;20365;-80
2022/12/29 07:19:20;;;;;;;;;;;9.20;99.90;;;;;;5048717;28;19928;-81
2022/12/29 07:21:46;;;;;;;;;;;9.30;99.90;;;;;;5070045;28;20396;-81
2022/12/29 07:24:11;;;;;;;;;;;9.20;99.90;;;;;;5052494;28;20011;-81
2022/12/29 07:26:37;;;;;;;;;;;9.30;99.90;;;;;;5063488;28;20048;-80
2022/12/29 07:29:03;;;;;;;;;;;8.90;99.90;;;;;;5054398;28;19920;-81
2022/12/29 07:31:29;;;;;;;;;;;9.20;99.90;;;;;;5067265;28;20015;-81
2022/12/29 07:33:55;;;;;;;;;;;9.10;99.90;;;;;;5086617;28;20360;-81
2022/12/29 07:36:20;;;;;;;;;;;9.10;99.90;;;;;;5084901;28;19982;-81
2022/12/29 07:38:46;;;;;;;;;;;9.10;99.90;;;;;;5067776;28;19928;-80
2022/12/29 07:41:11;;;;;;;;;;;9.10;99.90;;;;;;5051694;28;20003;-81
2022/12/29 07:43:37;;;;;;;;;;;9.10;99.90;;;;;;5063788;28;19931;-81
2022/12/29 07:46:03;;;;;;;;;;;9.10;99.90;;;;;;5069471;28;19924;-80
2022/12/29 07:48:28;;;;;;;;;;;9.10;99.90;;;;;;5070057;28;19924;-81
2022/12/29 07:50:54;;;;;;;;;;;9.10;99.90;;;;;;5069635;28;20452;-80
2022/12/29 07:53:19;;;;;;;;;;;9.10;99.90;;;;;;5060544;28;19958;-81
2022/12/29 07:55:45;;;;;;;;;;;9.10;99.90;;;;;;5061982;28;19970;-80
2022/12/29 07:58:11;;;;;;;;;;;9.00;99.90;;;;;;5084635;28;19955;-79
2022/12/29 08:00:37;;;;;;;;;;;9.10;99.90;;;;;;5082375;28;19986;-81
2022/12/29 08:03:03;;;;;;;;;;;9.10;99.90;;;;;;5086810;28;20385;-81
2022/12/29 08:05:30;;;;;;;;;;;9.20;99.90;;;;;;5083896;28;19916;-81
2022/12/29 08:07:55;;;;;;;;;;;9.10;99.90;;;;;;5044892;28;20305;-81
2022/12/29 08:10:21;;;;;;;;;;;9.10;99.90;;;;;;5069191;28;19927;-81
2022/12/29 08:12:46;;;;;;;;;;;9.10;99.90;;;;;;5084174;28;19995;-82
2022/12/29 08:15:12;;;;;;;;;;;9.20;99.90;;;;;;5066966;28;19935;-81
2022/12/29 08:17:38;;;;;;;;;;;9.20;99.90;;;;;;5069599;28;19935;-81
2022/12/29 08:20:04;;;;;;;;;;;9.10;99.90;;;;;;5065927;28;20019;-80
2022/12/29 08:22:30;;;;;;;;;;;9.10;99.90;;;;;;5083821;28;19920;-82
2022/12/29 08:24:55;;;;;;;;;;;9.00;99.90;;;;;;5067615;28;19927;-81
2022/12/29 08:27:21;;;;;;;;;;;9.00;99.90;;;;;;5082690;28;19924;-82
2022/12/29 08:29:47;;;;;;;;;;;9.00;99.90;;;;;;5068770;28;19986;-80
2022/12/29 08:32:12;;;;;;;;;;;9.00;99.90;;;;;;5068332;28;20023;-81
2022/12/29 08:34:38;;;;;;;;;;;9.00;99.90;;;;;;5068847;28;20296;-80
2022/12/29 08:37:03;;;;;;;;;;;9.00;99.90;;;;;;5066325;28;19920;-80
2022/12/29 08:39:29;;;;;;;;;;;9.00;99.90;;;;;;5069397;28;19924;-80
2022/12/29 08:41:55;;;;;;;;;;;9.00;99.90;;;;;;5068633;28;19953;-80
2022/12/29 08:44:20;;;;;;;;;;;9.10;99.90;;;;;;5084619;28;20077;-79
2022/12/29 08:46:46;;;;;;;;;;;9.00;99.90;;;;;;5052333;28;19925;-81
2022/12/29 08:49:11;;;;;;;;;;;9.10;99.90;;;;;;5061555;28;20397;-81
2022/12/29 08:51:37;;;;;;;;;;;9.00;99.90;;;;;;5079913;28;19924;-82
2022/12/29 08:54:03;;;;;;;;;;;9.10;99.90;;;;;;5063951;28;20014;-81
2022/12/29 08:56:28;;;;;;;;;;;9.20;99.90;;;;;;5064933;28;19986;-91
2022/12/29 08:58:54;;;;;;;;;;;9.20;99.90;;;;;;5056846;28;19927;-80
2022/12/29 09:01:20;;;;;;;;;;;9.20;99.90;;;;;;5086815;28;19928;-81
2022/12/29 09:03:46;;;;;;;;;;;9.30;99.90;;;;;;5085617;28;19959;-80
2022/12/29 09:06:12;;;;;;;;;;;9.20;99.90;;;;;;5083833;28;19931;-87
2022/12/29 09:08:38;;;;;;;;;;;9.10;99.90;;;;;;5057657;28;20011;-81
2022/12/29 09:11:07;;;;;;;;;;;9.10;99.90;;;;;;5062103;28;19974;-81
2022/12/29 09:13:33;;;;;;;;;;;9.40;99.90;;;;;;5062286;28;20290;-82
2022/12/29 09:15:59;;;;;;;;;;;9.90;99.90;;;;;;5063790;28;19930;-81
2022/12/29 09:18:25;;;;;;;;;;;10.10;99.90;;;;;;5066338;28;19920;-82
2022/12/29 09:20:55;;;;;;;;;;;10.00;99.90;;;;;;5054274;28;19932;-82
2022/12/29 09:23:21;;;;;;;;;;;9.90;99.90;;;;;;5088670;28;19924;-82
2022/12/29 09:25:47;;;;;;;;;;;9.70;99.90;;;;;;5066505;28;19921;-82
2022/12/29 09:28:12;;;;;;;;;;;9.50;99.90;;;;;;5068214;28;19920;-84
2022/12/29 09:30:39;;;;;;;;;;;9.30;99.90;;;;;;5062747;28;19920;-83
2022/12/29 09:33:04;;;;;;;;;;;9.20;99.90;;;;;;5072184;28;19929;-84
2022/12/29 09:35:30;;;;;;;;;;;9.10;99.90;;;;;;5046256;28;19921;-82
2022/12/29 09:37:56;;;;;;;;;;;9.10;99.90;;;;;;5060293;28;19920;-84
2022/12/29 09:40:26;;;;;;;;;;;9.00;99.90;;;;;;5050375;28;19920;-85
2022/12/29 09:43:05;;;;;;;;;;;9.00;99.90;;;;;;5082196;28;19931;-83
2022/12/29 09:45:36;;;;;;;;;;;9.00;99.90;;;;;;5082742;28;20407;-83
2022/12/29 09:48:03;;;;;;;;;;;8.90;99.90;;;;;;5067242;28;19920;-83
2022/12/29 09:50:36;;;;;;;;;;;8.90;99.90;;;;;;5102995;27;19928;-82
2022/12/29 09:53:11;;;;;;;;;;;8.90;99.90;;;;;;5077576;28;20014;-83
2022/12/29 09:55:39;;;;;;;;;;;8.90;99.90;;;;;;5083129;28;20377;-81
2022/12/29 09:58:10;;;;;;;;;;;8.90;99.90;;;;;;5075265;28;20329;-81
2022/12/29 10:00:38;;;;;;;;;;;8.90;99.90;;;;;;5084003;28;19981;-86
2022/12/29 10:03:15;;;;;;;;;;;8.90;99.90;;;;;;5063079;28;19928;-86
2022/12/29 10:06:10;;;;;;;;;;;9.00;99.90;;;;;;5069384;28;20046;-85
2022/12/29 10:08:49;;;;;;;;;;;9.00;99.90;;;;;;5018438;28;20282;-85
2022/12/29 10:11:33;;;;;;;;;;;9.10;99.90;;;;;;5067893;28;20419;-85
2022/12/29 10:14:08;;;;;;;;;;;9.10;99.90;;;;;;5067859;28;19924;-85
2022/12/29 10:16:41;;;;;;;;;;;9.10;99.90;;;;;;5075275;28;19946;-83
2022/12/29 10:19:15;;;;;;;;;;;9.20;99.90;;;;;;5069517;28;19920;-84
2022/12/29 10:21:50;;;;;;;;;;;9.20;99.90;;;;;;5078958;28;19943;-84
2022/12/29 10:24:16;;;;;;;;;;;9.20;99.90;;;;;;5072637;28;19928;-84
2022/12/29 10:26:43;;;;;;;;;;;9.30;99.90;;;;;;5053928;28;19928;-84
2022/12/29 10:29:12;;;;;;;;;;;9.30;99.90;;;;;;5064029;28;19920;-84
2022/12/29 10:31:47;;;;;;;;;;;9.30;99.90;;;;;;5079718;28;19933;-84
2022/12/29 10:34:20;;;;;;;;;;;9.30;99.90;;;;;;5068559;28;19928;-83
2022/12/29 10:36:48;;;;;;;;;;;9.30;99.90;;;;;;5078740;28;19920;-83
2022/12/29 10:39:14;;;;;;;;;;;9.30;99.90;;;;;;5061864;28;19920;-83
2022/12/29 10:42:02;;;;;;;;;;;9.40;99.90;;;;;;5067299;28;19935;-83
2022/12/29 10:44:30;;;;;;;;;;;9.40;99.90;;;;;;5052627;28;19927;-84
2022/12/29 10:46:59;;;;;;;;;;;9.50;99.90;;;;;;5070440;28;19972;-85
2022/12/29 10:49:26;;;;;;;;;;;9.40;99.90;;;;;;5075580;28;19973;-85
2022/12/29 10:51:54;;;;;;;;;;;9.40;99.90;;;;;;5076205;28;19924;-85
2022/12/29 10:54:30;;;;;;;;;;;9.40;99.90;;;;;;5063266;28;21612;-83
2022/12/29 10:57:04;;;;;;;;;;;9.40;99.90;;;;;;5057940;28;19921;-85
2022/12/29 10:59:31;;;;;;;;;;;9.30;99.90;;;;;;5080474;28;20454;-84
2022/12/29 11:02:04;;;;;;;;;;;9.30;99.90;;;;;;5085861;28;19942;-85
2022/12/29 11:04:45;;;;;;;;;;;9.20;99.90;;;;;;5057869;28;19921;-85
2022/12/29 11:07:11;;;;;;;;;;;9.20;99.90;;;;;;5068205;28;19928;-86
2022/12/29 11:09:38;;;;;;;;;;;9.20;99.90;;;;;;5059349;28;19924;-85
2022/12/29 11:12:22;;;;;;;;;;;9.20;99.90;;;;;;5058997;28;19924;-85
2022/12/29 11:15:00;;;;;;;;;;;9.20;99.90;;;;;;5071906;28;19924;-87
2022/12/29 11:17:25;;;;;;;;;;;9.10;99.90;;;;;;5062045;28;19927;-87
2022/12/29 11:19:51;;;;;;;;;;;9.10;99.90;;;;;;5055323;28;19928;-86
2022/12/29 11:22:20;;;;;;;;;;;9.10;99.90;;;;;;5064294;28;20467;-87
2022/12/29 11:24:46;;;;;;;;;;;9.10;99.90;;;;;;5065315;28;20003;-87
2022/12/29 11:27:22;;;;;;;;;;;9.00;99.90;;;;;;5077517;28;19920;-88
2022/12/29 11:29:49;;;;;;;;;;;9.00;99.90;;;;;;5084224;28;19920;-85
2022/12/29 11:32:19;;;;;;;;;;;9.00;99.90;;;;;;5072488;28;20335;-85
2022/12/29 11:34:45;;;;;;;;;;;8.90;99.90;;;;;;5067094;28;19921;-83
2022/12/29 11:37:10;;;;;;;;;;;8.80;99.90;;;;;;5054446;28;19927;-82
2022/12/29 11:39:36;;;;;;;;;;;8.80;99.90;;;;;;5064359;28;19966;-82
2022/12/29 11:42:02;;;;;;;;;;;8.70;99.90;;;;;;5064021;28;20413;-83
2022/12/29 11:44:30;;;;;;;;;;;8.70;99.90;;;;;;5066459;28;20301;-83
2022/12/29 11:46:55;;;;;;;;;;;8.70;99.90;;;;;;5083251;28;20297;-83
2022/12/29 11:49:25;;;;;;;;;;;8.80;99.90;;;;;;5050934;28;19921;-83
2022/12/29 11:51:51;;;;;;;;;;;8.70;99.90;;;;;;5062289;28;19974;-83
2022/12/29 11:54:19;;;;;;;;;;;8.80;99.90;;;;;;5066882;28;19924;-83
2022/12/29 11:56:45;;;;;;;;;;;8.80;99.90;;;;;;5062440;28;20669;-84
2022/12/29 11:59:24;;;;;;;;;;;8.80;99.90;;;;;;5062741;28;19966;-83
2022/12/29 12:01:50;;;;;;;;;;;8.70;99.90;;;;;;5064023;28;19983;-83
2022/12/29 12:04:18;;;;;;;;;;;8.70;99.90;;;;;;5056224;28;20391;-84
2022/12/29 12:07:04;;;;;;;;;;;8.80;99.90;;;;;;5071145;28;19924;-84
2022/12/29 12:09:32;;;;;;;;;;;8.80;99.90;;;;;;5073185;28;19927;-84
2022/12/29 12:11:59;;;;;;;;;;;8.80;99.90;;;;;;5071286;28;19924;-84
2022/12/29 12:14:31;;;;;;;;;;;8.80;99.90;;;;;;5083944;28;20011;-84
2022/12/29 12:17:10;;;;;;;;;;;8.80;99.90;;;;;;5083977;28;20385;-85
2022/12/29 12:20:05;;;;;;;;;;;8.80;99.90;;;;;;5084496;28;19920;-84
2022/12/29 12:22:38;;;;;;;;;;;8.90;99.90;;;;;;5073449;28;19988;-84
2022/12/29 12:25:21;;;;;;;;;;;8.90;99.90;;;;;;5073472;28;19920;-84
2022/12/29 12:27:57;;;;;;;;;;;8.90;99.90;;;;;;5072390;28;19927;-84
2022/12/29 12:30:24;;;;;;;;;;;9.00;99.90;;;;;;5083873;28;19931;-84
2022/12/29 12:33:03;;;;;;;;;;;9.10;99.90;;;;;;5065517;28;19924;-85
2022/12/29 12:35:28;;;;;;;;;;;9.10;99.90;;;;;;5086188;28;19920;-85
2022/12/29 12:38:12;;;;;;;;;;;9.20;99.90;;;;;;5067161;28;19927;-85
2022/12/29 12:40:56;;;;;;;;;;;9.20;99.90;;;;;;5069253;28;20302;-85
2022/12/29 12:43:37;;;;;;;;;;;9.20;99.90;;;;;;5068725;28;19924;-86
2022/12/29 12:46:12;;;;;;;;;;;9.20;99.90;;;;;;5069442;28;20293;-85
2022/12/29 12:48:52;;;;;;;;;;;9.10;99.90;;;;;;5090270;28;19926;-85
2022/12/29 12:51:33;;;;;;;;;;;9.00;99.90;;;;;;5062809;28;19931;-83
2022/12/29 12:54:17;;;;;;;;;;;8.80;99.90;;;;;;5085479;28;20377;-83
2022/12/29 12:56:55;;;;;;;;;;;8.60;99.90;;;;;;5089595;28;19924;-82
2022/12/29 12:59:24;;;;;;;;;;;8.40;99.90;;;;;;5063996;28;20411;-83
2022/12/29 13:01:49;;;;;;;;;;;8.30;99.90;;;;;;5087304;28;19935;-83
2022/12/29 13:04:21;;;;;;;;;;;8.20;99.90;;;;;;5069729;28;19924;-84
2022/12/29 13:06:47;;;;;;;;;;;8.20;99.90;;;;;;5072812;28;19924;-84
2022/12/29 13:09:22;;;;;;;;;;;8.20;99.90;;;;;;5068211;28;20050;-84
2022/12/29 13:12:06;;;;;;;;;;;8.20;99.90;;;;;;5089934;28;19924;-84
2022/12/29 13:14:32;;;;;;;;;;;8.30;99.90;;;;;;5088792;28;19920;-84
2022/12/29 13:17:16;;;;;;;;;;;8.30;99.90;;;;;;5085792;28;20376;-85
2022/12/29 13:19:49;;;;;;;;;;;8.40;99.90;;;;;;5067767;28;19920;-85
2022/12/29 13:22:25;;;;;;;;;;;8.40;99.90;;;;;;5078943;28;19923;-85
2022/12/29 13:24:55;;;;;;;;;;;8.50;99.90;;;;;;5069510;28;19925;-85
2022/12/29 13:27:20;;;;;;;;;;;8.60;99.90;;;;;;5067293;28;19924;-85
2022/12/29 13:30:09;;;;;;;;;;;8.60;99.90;;;;;;5072417;28;20588;-85
2022/12/29 13:32:35;;;;;;;;;;;8.60;99.90;;;;;;5073250;28;20331;-85
2022/12/29 13:35:11;;;;;;;;;;;8.70;99.90;;;;;;5086673;28;19920;-86
2022/12/29 13:37:44;;;;;;;;;;;8.70;99.90;;;;;;5070314;28;19926;-86
2022/12/29 13:40:13;;;;;;;;;;;8.70;99.90;;;;;;5085342;28;19967;-86
2022/12/29 13:42:39;;;;;;;;;;;8.80;99.90;;;;;;5072871;28;19920;-86
2022/12/29 13:45:06;;;;;;;;;;;8.80;99.90;;;;;;5070977;28;19927;-86
2022/12/29 13:47:37;;;;;;;;;;;8.80;99.90;;;;;;5066280;28;20451;-86
2022/12/29 13:50:04;;;;;;;;;;;8.80;99.90;;;;;;5083139;28;19998;-86
2022/12/29 13:52:40;;;;;;;;;;;8.80;99.90;;;;;;5060881;28;19924;-86
2022/12/29 13:55:15;;;;;;;;;;;8.70;99.90;;;;;;5082420;28;20030;-86
2022/12/29 13:57:44;;;;;;;;;;;8.70;99.90;;;;;;5080104;28;19921;-86
2022/12/29 14:00:13;;;;;;;;;;;8.70;99.90;;;;;;5068258;28;20297;-86
2022/12/29 14:02:41;;;;;;;;;;;8.70;99.90;;;;;;5063196;28;19928;-86
2022/12/29 14:05:22;;;;;;;;;;;8.70;99.90;;;;;;5083597;28;20011;-86
2022/12/29 14:07:49;;;;;;;;;;;8.60;99.90;;;;;;5068520;28;19925;-86
2022/12/29 14:10:34;;;;;;;;;;;8.60;99.90;;;;;;5085072;28;19924;-86
2022/12/29 14:13:14;;;;;;;;;;;8.60;99.90;;;;;;5081958;28;19924;-86
2022/12/29 14:15:44;;;;;;;;;;;8.50;99.90;;;;;;5067166;28;19927;-86
2022/12/29 14:18:12;;;;;;;;;;;8.50;99.90;;;;;;5067706;28;19920;-86
2022/12/29 14:20:38;;;;;;;;;;;8.40;99.90;;;;;;5071109;28;19966;-86
2022/12/29 14:23:10;;;;;;;;;;;8.40;99.90;;;;;;5062416;28;20031;-86
2022/12/29 14:25:53;;;;;;;;;;;8.40;99.90;;;;;;5070906;28;19951;-86
2022/12/29 14:28:23;;;;;;;;;;;8.30;99.90;;;;;;5065731;28;19928;-86
2022/12/29 14:30:50;;;;;;;;;;;8.30;99.90;;;;;;5064518;28;19977;-86
2022/12/29 14:33:16;;;;;;;;;;;8.30;99.90;;;;;;5068220;28;19928;-86
2022/12/29 14:35:44;;;;;;;;;;;8.30;99.90;;;;;;5068316;28;19925;-87
2022/12/29 14:38:17;;;;;;;;;;;8.30;99.90;;;;;;5086429;28;19986;-86
2022/12/29 14:40:42;;;;;;;;;;;8.30;99.90;;;;;;5080273;28;19920;-86
2022/12/29 14:43:13;;;;;;;;;;;8.40;99.90;;;;;;5067134;28;19969;-86
2022/12/29 14:45:40;;;;;;;;;;;8.40;99.90;;;;;;5105181;28;19935;-86
2022/12/29 14:48:24;;;;;;;;;;;8.40;99.90;;;;;;5069691;28;20274;-87
2022/12/29 14:50:50;;;;;;;;;;;8.40;99.90;;;;;;5081596;28;20010;-86
2022/12/29 14:53:41;;;;;;;;;;;8.40;99.90;;;;;;5052433;28;20513;-86
2022/12/29 14:56:09;;;;;;;;;;;8.40;99.90;;;;;;5081078;28;19924;-86
2022/12/29 14:58:43;;;;;;;;;;;8.30;99.90;;;;;;5086532;28;19924;-87
2022/12/29 15:01:32;;;;;;;;;;;8.30;99.90;;;;;;5081393;28;19936;-86
2022/12/29 15:04:02;;;;;;;;;;;8.30;99.90;;;;;;5056746;28;19962;-86
2022/12/29 15:06:29;;;;;;;;;;;8.30;99.90;;;;;;5077255;28;19924;-87